createdAt,value
2018-05-17T00:01:51.659Z,20.57
2018-05-17T00:05:54.282Z,21.80
2018-05-17T00:10:08.082Z,21.10
2018-05-17T00:14:10.635Z,20.13
2018-05-17T00:18:13.154Z,19.70
2018-05-17T00:22:16.078Z,18.47
2018-05-17T00:26:28.848Z,17.83
2018-05-17T00:30:31.504Z,19.07
2018-05-17T00:34:34.046Z,20.83
2018-05-17T00:38:37.364Z,18.97
2018-05-17T00:42:40.731Z,18.37
2018-05-17T00:46:43.279Z,18.40
2018-05-17T00:50:45.807Z,18.07
2018-05-17T00:54:49.115Z,16.83
2018-05-17T00:58:51.635Z,17.03
2018-05-17T01:02:55.063Z,17.73
2018-05-17T01:06:58.350Z,17.10
2018-05-17T01:11:01.392Z,17.53
2018-05-17T01:15:03.922Z,17.13
2018-05-17T01:19:06.575Z,16.57
2018-05-17T01:23:09.096Z,17.43
2018-05-17T01:27:11.651Z,16.50
2018-05-17T01:31:14.168Z,15.50
2018-05-17T01:35:17.570Z,17.53
2018-05-17T01:39:20.090Z,17.87
2018-05-17T01:43:22.635Z,16.63
2018-05-17T01:47:25.210Z,16.57
2018-05-17T01:51:27.758Z,15.70
2018-05-17T01:55:30.283Z,15.33
2018-05-17T01:59:33.591Z,14.87
2018-05-17T02:03:36.115Z,14.93
2018-05-17T02:07:39.426Z,13.37
2018-05-17T02:11:41.951Z,14.67
2018-05-17T02:15:45.266Z,15.27
2018-05-17T02:19:47.787Z,13.20
2018-05-17T02:23:50.371Z,14.27
2018-05-17T02:27:53.671Z,12.77
2018-05-17T02:32:03.531Z,13.03
2018-05-17T02:36:06.066Z,12.73
2018-05-17T02:40:08.695Z,12.40
2018-05-17T02:44:11.982Z,12.13
2018-05-17T02:48:15.023Z,11.33
2018-05-17T02:52:18.328Z,11.70
2018-05-17T02:56:20.882Z,11.93
2018-05-17T03:00:23.408Z,11.27
2018-05-17T03:04:25.969Z,10.87
2018-05-17T03:08:29.264Z,11.53
2018-05-17T03:12:31.810Z,10.23
2018-05-17T03:16:34.330Z,10.37
2018-05-17T03:20:36.891Z,10.40
2018-05-17T03:24:39.402Z,9.93
2018-05-17T03:28:41.959Z,9.47
2018-05-17T03:32:44.482Z,9.93
2018-05-17T03:36:47.038Z,9.23
2018-05-17T03:40:50.318Z,8.93
2018-05-17T03:44:53.259Z,8.93
2018-05-17T03:48:55.806Z,9.40
2018-05-17T03:52:58.442Z,9.33
2018-05-17T03:57:11.758Z,9.07
2018-05-17T04:01:26.145Z,8.40
2018-05-17T04:05:44.982Z,8.33
2018-05-17T04:09:47.524Z,8.07
2018-05-17T04:13:50.840Z,8.80
2018-05-17T04:17:53.754Z,8.10
2018-05-17T04:21:57.042Z,8.47
2018-05-17T04:26:01.615Z,7.33
2018-05-17T04:30:04.150Z,7.97
2018-05-17T04:34:06.692Z,7.47
2018-05-17T04:38:15.515Z,6.57
2018-05-17T04:42:18.054Z,6.57
2018-05-17T04:46:21.584Z,6.73
2018-05-17T04:50:24.840Z,6.43
2018-05-17T04:54:34.958Z,7.20
2018-05-17T04:58:37.502Z,6.43
2018-05-17T05:02:40.084Z,6.57
2018-05-17T05:06:42.591Z,6.27
2018-05-17T05:10:45.100Z,5.87
2018-05-17T05:14:47.746Z,6.30
2018-05-17T05:18:50.270Z,6.17
2018-05-17T05:22:53.591Z,5.63
2018-05-17T05:26:56.891Z,7.13
2018-05-17T05:30:59.530Z,7.10
2018-05-17T05:35:02.824Z,7.27
2018-05-17T05:39:05.385Z,7.60
2018-05-17T05:43:11.540Z,6.70
2018-05-17T05:47:14.083Z,6.77
2018-05-17T05:51:16.598Z,6.50
2018-05-17T05:55:19.152Z,6.07
2018-05-17T05:59:22.478Z,6.33
2018-05-17T06:03:25.807Z,6.63
2018-05-17T06:07:29.100Z,5.50
2018-05-17T06:11:31.663Z,7.00
2018-05-17T06:15:34.211Z,6.40
2018-05-17T06:19:36.757Z,5.70
2018-05-17T06:23:48.050Z,5.20
2018-05-17T06:27:51.015Z,4.83
2018-05-17T06:31:53.536Z,4.80
2018-05-17T06:35:56.411Z,4.67
2018-05-17T06:39:58.935Z,4.53
2018-05-17T06:44:01.541Z,4.47
2018-05-17T06:48:04.810Z,5.00
2018-05-17T06:52:07.374Z,4.40
2018-05-17T06:56:09.902Z,5.03
2018-05-17T07:00:12.543Z,5.23
2018-05-17T07:04:15.839Z,5.17
2018-05-17T07:12:51.961Z,4.57
2018-05-17T07:16:54.515Z,4.53
2018-05-17T07:20:57.802Z,5.17
2018-05-17T07:25:00.385Z,5.00
2018-05-17T07:29:09.319Z,4.60
2018-05-17T07:33:11.880Z,4.77
2018-05-17T07:37:14.408Z,4.50
2018-05-17T07:41:17.830Z,4.67
2018-05-17T07:45:20.352Z,4.57
2018-05-17T07:49:23.668Z,4.37
2018-05-17T07:53:26.967Z,4.40
2018-05-17T07:57:33.061Z,4.70
2018-05-17T08:01:56.475Z,4.60
2018-05-17T08:06:00.207Z,4.10
2018-05-17T08:10:03.494Z,4.50
2018-05-17T08:14:06.370Z,4.57
2018-05-17T08:18:11.875Z,5.00
2018-05-17T08:22:22.995Z,4.47
2018-05-17T08:26:25.524Z,4.13
2018-05-17T08:30:28.970Z,5.30
2018-05-17T08:34:32.251Z,4.83
2018-05-17T08:38:34.801Z,4.77
2018-05-17T08:42:37.394Z,5.57
2018-05-17T08:46:39.894Z,5.30
2018-05-17T08:50:43.175Z,4.63
2018-05-17T08:54:45.721Z,4.83
2018-05-17T08:58:48.234Z,5.63
2018-05-17T09:02:51.878Z,5.57
2018-05-17T09:06:54.406Z,5.30
2018-05-17T09:10:56.964Z,4.97
2018-05-17T09:15:04.763Z,4.93
2018-05-17T09:19:07.328Z,4.67
2018-05-17T09:23:09.841Z,5.67
2018-05-17T09:27:12.382Z,5.93
2018-05-17T09:31:14.895Z,5.87
2018-05-17T09:35:17.450Z,7.30
2018-05-17T09:39:19.979Z,6.83
2018-05-17T09:43:22.527Z,7.50
2018-05-17T09:47:25.039Z,6.97
2018-05-17T09:51:27.683Z,6.97
2018-05-17T09:55:32.974Z,7.30
2018-05-17T09:59:35.613Z,6.60
2018-05-17T10:03:38.124Z,7.07
2018-05-17T10:07:40.754Z,6.73
2018-05-17T10:11:44.034Z,8.40
2018-05-17T10:15:46.714Z,6.93
2018-05-17T10:19:49.239Z,8.20
2018-05-17T10:23:51.875Z,9.73
2018-05-17T10:27:54.395Z,9.07
2018-05-17T10:31:57.699Z,9.80
2018-05-17T10:36:00.214Z,9.57
2018-05-17T10:40:03.238Z,9.53
2018-05-17T10:44:06.518Z,10.23
2018-05-17T10:48:14.474Z,8.03
2018-05-17T10:52:16.997Z,8.70
2018-05-17T10:56:20.314Z,9.77
2018-05-17T11:00:34.470Z,8.67
2018-05-17T11:04:39.051Z,9.33
2018-05-17T11:08:43.359Z,9.20
2018-05-17T11:12:45.999Z,10.57
2018-05-17T11:16:56.735Z,9.70
2018-05-17T11:21:04.159Z,10.00
2018-05-17T11:25:06.715Z,9.90
2018-05-17T11:29:09.364Z,10.27
2018-05-17T11:33:12.300Z,10.97
2018-05-17T11:37:15.579Z,12.17
2018-05-17T11:41:25.786Z,10.43
2018-05-17T11:45:29.362Z,12.50
2018-05-17T11:49:39.306Z,13.43
2018-05-17T11:53:44.311Z,14.10
2018-05-17T11:57:46.844Z,13.07
2018-05-17T12:02:09.444Z,13.10
2018-05-17T12:06:14.059Z,13.50
2018-05-17T12:10:16.614Z,16.20
2018-05-17T12:14:20.079Z,15.80
2018-05-17T12:18:22.634Z,17.73
2018-05-17T12:22:25.166Z,16.20
2018-05-17T12:26:34.647Z,15.23
2018-05-17T12:30:37.171Z,16.87
2018-05-17T12:34:50.711Z,16.47
2018-05-17T12:38:53.239Z,17.63
2018-05-17T12:42:55.905Z,16.83
2018-05-17T12:46:59.111Z,16.50
2018-05-17T12:51:09.440Z,14.87
2018-05-17T12:55:12.035Z,16.77
2018-05-17T12:59:14.913Z,15.43
2018-05-17T13:03:30.538Z,15.50
2018-05-17T13:07:33.093Z,13.83
2018-05-17T13:11:35.620Z,14.27
2018-05-17T13:15:38.937Z,13.10
2018-05-17T13:19:41.575Z,13.57
2018-05-17T13:23:58.306Z,12.60
2018-05-17T13:28:01.610Z,13.10
2018-05-17T13:32:07.488Z,13.53
2018-05-17T13:36:18.979Z,13.80
2018-05-17T13:40:21.535Z,12.53
2018-05-17T13:44:26.756Z,13.60
2018-05-17T13:48:29.436Z,12.70
2018-05-17T13:52:31.962Z,12.50
2018-05-17T13:56:34.930Z,12.50
2018-05-17T14:00:37.494Z,12.37
2018-05-17T14:04:40.070Z,11.93
2018-05-17T14:08:43.540Z,12.37
2018-05-17T14:13:04.286Z,11.63
2018-05-17T14:17:09.840Z,11.57
2018-05-17T14:21:12.437Z,11.43
2018-05-17T14:25:38.566Z,10.30
2018-05-17T14:29:47.187Z,10.53
2018-05-17T14:33:51.511Z,9.70
2018-05-17T14:38:00.543Z,8.77
2018-05-17T14:42:03.069Z,8.40
2018-05-17T14:46:05.689Z,9.43
2018-05-17T14:50:11.090Z,8.03
2018-05-17T14:54:26.752Z,7.00
2018-05-17T14:58:35.910Z,7.60
2018-05-17T15:02:38.521Z,7.17
2018-05-17T15:06:41.089Z,7.67
2018-05-17T15:10:44.063Z,6.97
2018-05-17T15:14:54.358Z,6.27
2018-05-17T15:18:56.927Z,7.10
2018-05-17T15:22:59.455Z,6.33
2018-05-17T15:27:22.885Z,5.87
2018-05-17T15:31:25.432Z,5.07
2018-05-17T15:35:40.089Z,6.10
2018-05-17T15:39:47.798Z,5.47
2018-05-17T15:43:51.111Z,5.93
2018-05-17T15:47:53.705Z,6.07
2018-05-17T15:51:56.246Z,5.63
2018-05-17T15:56:01.473Z,5.70
2018-05-17T16:00:04.050Z,5.27
2018-05-17T16:04:06.580Z,5.67
2018-05-17T16:08:17.254Z,5.50
2018-05-17T16:12:19.778Z,5.50
2018-05-17T16:16:27.652Z,5.40
2018-05-17T16:20:34.729Z,5.90
2018-05-17T16:24:37.303Z,5.73
2018-05-17T16:28:40.794Z,6.20
2018-05-17T16:32:44.214Z,5.17
2018-05-17T16:41:19.031Z,5.70
2018-05-17T16:45:21.599Z,5.77
2018-05-17T16:49:26.094Z,6.47
2018-05-17T16:53:29.381Z,5.50
2018-05-17T16:57:31.938Z,5.53
2018-05-17T17:01:45.526Z,5.80
2018-05-17T17:05:54.802Z,5.60
2018-05-17T17:10:02.127Z,4.73
2018-05-17T17:14:05.179Z,5.47
2018-05-17T17:18:07.698Z,6.07
2018-05-17T17:22:12.955Z,5.50
2018-05-17T17:26:16.251Z,5.50
2018-05-17T17:30:18.908Z,5.47
2018-05-17T17:34:21.560Z,5.50
2018-05-17T17:38:24.039Z,4.70
2018-05-17T17:42:26.571Z,5.00
2018-05-17T17:46:29.544Z,5.17
2018-05-17T17:50:35.665Z,4.47
2018-05-17T17:54:38.585Z,4.93
2018-05-17T17:58:43.030Z,4.77
2018-05-17T18:02:45.599Z,4.63
2018-05-17T18:06:48.147Z,5.10
2018-05-17T18:10:55.095Z,4.47
2018-05-17T18:14:58.387Z,5.10
2018-05-17T18:19:01.169Z,5.00
2018-05-17T18:23:14.724Z,4.67
2018-05-17T18:27:17.407Z,4.47
2018-05-17T18:31:24.170Z,5.03
2018-05-17T18:35:26.796Z,5.33
2018-05-17T18:39:31.867Z,4.50
2018-05-17T18:43:46.060Z,5.03
2018-05-17T18:47:52.018Z,4.37
2018-05-17T18:51:55.926Z,5.93
2018-05-17T18:55:58.515Z,4.33
2018-05-17T19:00:13.240Z,4.73
2018-05-17T19:04:19.553Z,5.70
2018-05-17T19:08:22.115Z,4.87
2018-05-17T19:12:25.782Z,5.27
2018-05-17T19:16:28.419Z,4.70
2018-05-17T19:20:31.038Z,4.67
2018-05-17T19:24:40.294Z,5.17
2018-05-17T19:28:43.646Z,5.13
2018-05-17T19:32:46.957Z,4.60
2018-05-17T19:36:49.480Z,5.00
2018-05-17T19:40:52.056Z,4.80
2018-05-17T19:45:00.349Z,4.73
2018-05-17T19:49:02.995Z,4.23
2018-05-17T19:53:05.521Z,4.77
2018-05-17T19:57:08.852Z,4.23
2018-05-17T20:01:11.439Z,4.50
2018-05-17T20:05:14.797Z,4.40
2018-05-17T20:09:22.223Z,3.73
2018-05-17T20:13:35.124Z,4.30
2018-05-17T20:17:37.658Z,4.70
2018-05-17T20:21:50.976Z,4.67
2018-05-17T20:25:53.507Z,4.17
2018-05-17T20:29:57.482Z,4.60
2018-05-17T20:34:05.959Z,4.67
2018-05-17T20:38:08.539Z,3.80
2018-05-17T20:42:11.083Z,4.43
2018-05-17T20:46:21.759Z,3.90
2018-05-17T20:50:24.279Z,5.00
2018-05-17T20:54:46.820Z,4.33
2018-05-17T20:59:08.531Z,4.77
2018-05-17T21:03:12.598Z,4.63
2018-05-17T21:07:15.132Z,4.10
2018-05-17T21:11:19.723Z,4.73
2018-05-17T21:15:22.286Z,4.37
2018-05-17T21:19:24.879Z,4.60
2018-05-17T21:23:27.416Z,5.07
2018-05-17T21:27:32.004Z,4.80
2018-05-17T21:31:35.321Z,4.60
2018-05-17T21:35:37.891Z,5.23
2018-05-17T21:39:40.480Z,4.33
2018-05-17T21:43:43.785Z,4.30
2018-05-17T21:47:46.314Z,4.17
2018-05-17T21:51:48.967Z,4.90
2018-05-17T21:55:55.743Z,4.57
2018-05-17T21:59:58.308Z,4.47
2018-05-17T22:04:00.840Z,4.63
2018-05-17T22:08:03.829Z,4.20
2018-05-17T22:12:25.670Z,4.90
2018-05-17T22:16:29.019Z,4.87
2018-05-17T22:20:31.570Z,5.00
2018-05-17T22:24:34.247Z,5.40
2018-05-17T22:28:36.780Z,5.37
2018-05-17T22:32:39.452Z,5.93
2018-05-17T22:36:41.982Z,5.70
2018-05-17T22:40:44.535Z,5.73
2018-05-17T22:44:47.830Z,5.17
2018-05-17T22:48:50.401Z,5.43
2018-05-17T22:52:53.863Z,5.30
2018-05-17T22:57:08.171Z,6.13
2018-05-17T23:01:11.583Z,5.33
2018-05-17T23:05:22.076Z,5.97
2018-05-17T23:09:24.606Z,5.93
2018-05-17T23:13:28.027Z,5.60
2018-05-17T23:17:31.319Z,5.80
2018-05-17T23:21:33.883Z,5.97
2018-05-17T23:25:36.415Z,5.93
2018-05-17T23:29:39.083Z,6.10
2018-05-17T23:33:41.927Z,6.17
2018-05-17T23:37:44.519Z,5.87
2018-05-17T23:41:47.051Z,6.70
2018-05-17T23:45:49.687Z,6.70
2018-05-17T23:49:52.214Z,6.70
2018-05-17T23:53:54.773Z,5.60
2018-05-17T23:57:57.315Z,7.03
